Celestyal Crystal — 9HA2978 — position and weather

sailwx.info

Track history (hours):
 
Tides and Currents Weather Stations Pressure Air Temp Water Temp Dewpoint Dewpoint Depression Visibility Wind Speed Wind Dir Waves Ship Positions

Celestyal Crystal

Last reported at 2016-Jul-25 23:33 UTC. Time now 2016-Jul-27 17:14 UTC.
Position N 37°48' E 025°39'.

Length 162 m; draft 6.2 m.

Type: Passenger vessel. MMSI: 229001000.

Date/timePositionNaut miles runAvg speedWind from/ knotsBaromVisibWave heightAir tempDewpointWater temp
2016-Jul-25 23:33N 37°48' E 025°39'1212.2
2016-Jul-25 22:33N 37°40' E 025°28'1211.6
2016-Jul-25 21:33N 37°32' E 025°17'1211.8
2016-Jul-25 20:33N 37°27' E 025°04'5 0.8
2016-Jul-25 14:32N 37°26' E 024°58'3313.7
2016-Jul-25 12:09N 37°29' E 024°17'1016.1
2016-Jul-25 11:32N 37°33' E 024°05'1616.3
2016-Jul-25 10:33N 37°38' E 023°46'1515.4
2016-Jul-25 09:34N 37°52' E 023°37'5 4.4
2016-Jul-25 08:31N 37°56' E 023°38'0 0.0
2016-Jul-25 07:31N 37°56' E 023°38'0 0.0
2016-Jul-25 06:31N 37°56' E 023°38'0 0.0
2016-Jul-25 05:28N 37°56' E 023°38'0 0.0
2016-Jul-25 04:31N 37°56' E 023°38'0 0.0
2016-Jul-25 03:31N 37°56' E 023°38'0 0.0
2016-Jul-25 02:31N 37°56' E 023°38'0 0.1
2016-Jul-25 01:34N 37°56' E 023°38'10 9.8
2016-Jul-25 00:34N 37°47' E 023°41'1110.6
2016-Jul-24 23:33N 37°37' E 023°47'1110.7
2016-Jul-24 22:34N 37°28' E 023°52'1110.5
2016-Jul-24 21:33N 37°18' E 023°59'1410.4
2016-Jul-24 20:14N 37°07' E 024°08'39 2.1
2016-Jul-24 01:34N 37°12' E 024°57'1717.0
2016-Jul-24 00:33N 37°20' E 025°16'1716.9
2016-Jul-23 23:31N 37°27' E 025°35'12 0.5
2016-Jul-22 22:28N 37°37' E 025°44'1617.2
2016-Jul-22 21:33N 37°33' E 025°25'7 6.8
2016-Jul-22 20:32N 37°28' E 025°20'0 0.0
2016-Jul-22 19:29N 37°28' E 025°20'0 0.0
2016-Jul-22 18:32N 37°28' E 025°20'0 0.0
2016-Jul-22 17:32N 37°28' E 025°20'0 0.0
2016-Jul-22 16:32N 37°28' E 025°20'0 0.0
2016-Jul-22 15:32N 37°28' E 025°20'1 1.1
2016-Jul-22 14:33N 37°28' E 025°18'1514.9
2016-Jul-22 13:33N 37°31' E 024°60'43 3.7
2016-Jul-22 02:05N 37°36' E 024°06'  
2016-Jul-19 00:06N 37°50' E 025°42'611.5
2016-Jul-18 23:33N 37°46' E 025°36'1111.3
2016-Jul-18 22:33N 37°38' E 025°26'1110.6
2016-Jul-18 21:33N 37°31' E 025°16'1211.4
2016-Jul-18 20:33N 37°27' E 025°02'37 4.5
2016-Jul-18 12:23N 37°29' E 024°16'1416.3
2016-Jul-18 11:33N 37°34' E 023°60'1616.3
2016-Jul-18 10:33N 37°41' E 023°42'1615.7
2016-Jul-18 09:33N 37°56' E 023°37'1 0.9
2016-Jul-18 08:32N 37°56' E 023°38'0 0.0
2016-Jul-18 07:32N 37°56' E 023°38'0 0.0
2016-Jul-18 06:32N 37°56' E 023°38'0 0.0
2016-Jul-18 05:32N 37°56' E 023°38'0 0.0
2016-Jul-18 04:32N 37°56' E 023°38'0 0.0
2016-Jul-18 03:32N 37°56' E 023°38'0 0.0
2016-Jul-18 02:32N 37°56' E 023°38'0 0.3
2016-Jul-18 01:34N 37°56' E 023°38'10 9.6
2016-Jul-18 00:33N 37°47' E 023°41'1010.4
2016-Jul-17 23:33N 37°38' E 023°47'1110.4
2016-Jul-17 22:32N 37°28' E 023°52'1110.6
2016-Jul-17 21:32N 37°19' E 023°59'1010.4
2016-Jul-17 20:33N 37°10' E 024°06'10 9.6
2016-Jul-17 19:33N 37°02' E 024°11'39 2.2
2016-Jul-17 01:34N 37°13' E 024°58'1716.6
2016-Jul-17 00:34N 37°20' E 025°17'1716.7
2016-Jul-16 23:33N 37°28' E 025°36'33 1.4
2016-Jul-16 00:09N 37°44' E 026°12'  
Track history (hours):
 
Tides and Currents Weather Stations Pressure Air Temp Water Temp Dewpoint Dewpoint Depression Visibility Wind Speed Wind Dir Waves Ship Positions

Celestyal Crystal

Last reported at 2016-Jul-25 23:33 UTC. Time now 2016-Jul-27 17:14 UTC.
Position N 37°48' E 025°39'.

Length 162 m; draft 6.2 m.

Type: Passenger vessel. MMSI: 229001000.

Date/timePositionNaut miles runAvg speedWind from/ knotsBaromVisibWave heightAir tempDewpointWater temp
2016-Jul-25 23:33N 37°48' E 025°39'1212.2
2016-Jul-25 22:33N 37°40' E 025°28'1211.6
2016-Jul-25 21:33N 37°32' E 025°17'1211.8
2016-Jul-25 20:33N 37°27' E 025°04'5 0.8
2016-Jul-25 14:32N 37°26' E 024°58'3313.7
2016-Jul-25 12:09N 37°29' E 024°17'1016.1
2016-Jul-25 11:32N 37°33' E 024°05'1616.3
2016-Jul-25 10:33N 37°38' E 023°46'1515.4
2016-Jul-25 09:34N 37°52' E 023°37'5 4.4
2016-Jul-25 08:31N 37°56' E 023°38'0 0.0
2016-Jul-25 07:31N 37°56' E 023°38'0 0.0
2016-Jul-25 06:31N 37°56' E 023°38'0 0.0
2016-Jul-25 05:28N 37°56' E 023°38'0 0.0
2016-Jul-25 04:31N 37°56' E 023°38'0 0.0
2016-Jul-25 03:31N 37°56' E 023°38'0 0.0
2016-Jul-25 02:31N 37°56' E 023°38'0 0.1
2016-Jul-25 01:34N 37°56' E 023°38'10 9.8
2016-Jul-25 00:34N 37°47' E 023°41'1110.6
2016-Jul-24 23:33N 37°37' E 023°47'1110.7
2016-Jul-24 22:34N 37°28' E 023°52'1110.5
2016-Jul-24 21:33N 37°18' E 023°59'1410.4
2016-Jul-24 20:14N 37°07' E 024°08'39 2.1
2016-Jul-24 01:34N 37°12' E 024°57'1717.0
2016-Jul-24 00:33N 37°20' E 025°16'1716.9
2016-Jul-23 23:31N 37°27' E 025°35'12 0.5
2016-Jul-22 22:28N 37°37' E 025°44'1617.2
2016-Jul-22 21:33N 37°33' E 025°25'7 6.8
2016-Jul-22 20:32N 37°28' E 025°20'0 0.0
2016-Jul-22 19:29N 37°28' E 025°20'0 0.0
2016-Jul-22 18:32N 37°28' E 025°20'0 0.0
2016-Jul-22 17:32N 37°28' E 025°20'0 0.0
2016-Jul-22 16:32N 37°28' E 025°20'0 0.0
2016-Jul-22 15:32N 37°28' E 025°20'1 1.1
2016-Jul-22 14:33N 37°28' E 025°18'1514.9
2016-Jul-22 13:33N 37°31' E 024°60'43 3.7
2016-Jul-22 02:05N 37°36' E 024°06'  
2016-Jul-19 00:06N 37°50' E 025°42'611.5
2016-Jul-18 23:33N 37°46' E 025°36'1111.3
2016-Jul-18 22:33N 37°38' E 025°26'1110.6
2016-Jul-18 21:33N 37°31' E 025°16'1211.4
2016-Jul-18 20:33N 37°27' E 025°02'37 4.5
2016-Jul-18 12:23N 37°29' E 024°16'1416.3
2016-Jul-18 11:33N 37°34' E 023°60'1616.3
2016-Jul-18 10:33N 37°41' E 023°42'1615.7
2016-Jul-18 09:33N 37°56' E 023°37'1 0.9
2016-Jul-18 08:32N 37°56' E 023°38'0 0.0
2016-Jul-18 07:32N 37°56' E 023°38'0 0.0
2016-Jul-18 06:32N 37°56' E 023°38'0 0.0
2016-Jul-18 05:32N 37°56' E 023°38'0 0.0
2016-Jul-18 04:32N 37°56' E 023°38'0 0.0
2016-Jul-18 03:32N 37°56' E 023°38'0 0.0
2016-Jul-18 02:32N 37°56' E 023°38'0 0.3
2016-Jul-18 01:34N 37°56' E 023°38'10 9.6
2016-Jul-18 00:33N 37°47' E 023°41'1010.4
2016-Jul-17 23:33N 37°38' E 023°47'1110.4
2016-Jul-17 22:32N 37°28' E 023°52'1110.6
2016-Jul-17 21:32N 37°19' E 023°59'1010.4
2016-Jul-17 20:33N 37°10' E 024°06'10 9.6
2016-Jul-17 19:33N 37°02' E 024°11'39 2.2
2016-Jul-17 01:34N 37°13' E 024°58'1716.6
2016-Jul-17 00:34N 37°20' E 025°17'1716.7
2016-Jul-16 23:33N 37°28' E 025°36'33 1.4
2016-Jul-16 00:09N 37°44' E 026°12'  

Dump ship's entire track history